createdAt,value
2017-09-27T00:00:35.712Z,1007
2017-09-27T00:01:45.737Z,1007.03
2017-09-27T00:02:55.766Z,1007.06
2017-09-27T00:04:06.164Z,1007.01
2017-09-27T00:05:16.524Z,1007.05
2017-09-27T00:06:26.257Z,1007.06
2017-09-27T00:07:36.623Z,1007.01
2017-09-27T00:08:46.998Z,1007.03
2017-09-27T00:09:57.392Z,1007.04
2017-09-27T00:11:07.115Z,1007.04
2017-09-27T00:12:17.474Z,1007.07
2017-09-27T00:13:27.504Z,1007.08
2017-09-27T00:14:37.853Z,1007.07
2017-09-27T00:15:48.191Z,1007.07
2017-09-27T00:16:58.553Z,1007.09
2017-09-27T00:18:08.908Z,1007.09
2017-09-27T00:19:19.257Z,1007.13
2017-09-27T00:20:29.624Z,1007.13
2017-09-27T00:21:39.651Z,1007.07
2017-09-27T00:22:50.012Z,1007.08
2017-09-27T00:24:00.363Z,1007.07
2017-09-27T00:25:10.072Z,1007.05
2017-09-27T00:26:20.101Z,1007.06
2017-09-27T00:27:30.447Z,1007.02
2017-09-27T00:28:40.792Z,1007
2017-09-27T00:29:50.808Z,1006.97
2017-09-27T00:31:00.829Z,1006.97
2017-09-27T00:32:11.171Z,1006.98
2017-09-27T00:33:21.519Z,1006.98
2017-09-27T00:34:31.882Z,1006.98
2017-09-27T00:35:41.922Z,1006.96
2017-09-27T00:36:51.957Z,1006.96
2017-09-27T00:38:02.300Z,1006.96
2017-09-27T00:39:12.325Z,1006.97
2017-09-27T00:40:22.358Z,1006.93
2017-09-27T00:41:32.708Z,1006.95
2017-09-27T00:42:43.057Z,1006.97
2017-09-27T00:43:53.394Z,1006.97
2017-09-27T00:45:03.737Z,1006.94
2017-09-27T00:46:13.759Z,1006.93
2017-09-27T00:47:24.115Z,1006.92
2017-09-27T00:48:34.140Z,1006.9
2017-09-27T00:49:44.164Z,1006.91
2017-09-27T00:50:55.018Z,1006.92
2017-09-27T00:52:05.366Z,1006.93
2017-09-27T00:53:15.706Z,1006.91
2017-09-27T00:54:25.726Z,1006.95
2017-09-27T00:55:36.057Z,1006.91
2017-09-27T00:56:46.437Z,1006.92
2017-09-27T00:57:56.786Z,1006.94
2017-09-27T00:59:06.812Z,1006.95
2017-09-27T01:00:17.154Z,1006.94
2017-09-27T01:01:27.488Z,1006.94
2017-09-27T01:02:37.834Z,1006.93
2017-09-27T01:03:48.181Z,1006.94
2017-09-27T01:04:58.207Z,1006.95
2017-09-27T01:06:08.227Z,1006.97
2017-09-27T01:07:19.229Z,1006.99
2017-09-27T01:08:29.315Z,1006.95
2017-09-27T01:09:39.649Z,1006.97
2017-09-27T01:10:49.995Z,1006.96
2017-09-27T01:12:00.351Z,1006.94
2017-09-27T01:13:10.377Z,1007
2017-09-27T01:14:20.771Z,1006.95
2017-09-27T01:15:31.107Z,1006.97
2017-09-27T01:16:41.456Z,1006.93
2017-09-27T01:17:51.499Z,1006.97
2017-09-27T01:19:01.837Z,1006.99
2017-09-27T01:20:11.921Z,1006.98
2017-09-27T01:21:22.265Z,1006.97
2017-09-27T01:22:32.607Z,1006.97
2017-09-27T01:23:42.641Z,1006.94
2017-09-27T01:24:52.988Z,1006.93
2017-09-27T01:26:03.336Z,1006.93
2017-09-27T01:27:13.681Z,1006.92
2017-09-27T01:28:24.006Z,1006.9
2017-09-27T01:29:34.345Z,1006.9
2017-09-27T01:30:44.373Z,1006.91
2017-09-27T01:31:54.715Z,1006.83
2017-09-27T01:33:05.068Z,1006.88
2017-09-27T01:34:15.409Z,1006.84
2017-09-27T01:35:25.743Z,1006.85
2017-09-27T01:36:36.085Z,1006.86
2017-09-27T01:37:46.490Z,1006.81
2017-09-27T01:38:56.523Z,1006.82
2017-09-27T01:40:06.865Z,1006.79
2017-09-27T01:41:17.190Z,1006.8
2017-09-27T01:42:26.899Z,1006.8
2017-09-27T01:43:37.230Z,1006.78
2017-09-27T01:44:47.241Z,1006.77
2017-09-27T01:45:57.582Z,1006.77
2017-09-27T01:47:07.929Z,1006.78
2017-09-27T01:48:18.273Z,1006.74
2017-09-27T01:49:28.314Z,1006.72
2017-09-27T01:50:38.653Z,1006.73
2017-09-27T01:51:48.991Z,1006.75
2017-09-27T01:52:59.337Z,1006.76
2017-09-27T01:54:09.374Z,1006.79
2017-09-27T01:55:19.726Z,1006.75
2017-09-27T01:56:30.069Z,1006.79
2017-09-27T01:57:40.096Z,1006.79
2017-09-27T01:58:50.429Z,1006.79
2017-09-27T02:00:00.456Z,1006.78
2017-09-27T02:01:10.870Z,1006.86
2017-09-27T02:02:20.886Z,1006.85
2017-09-27T02:03:30.918Z,1006.83
2017-09-27T02:04:40.930Z,1006.83
2017-09-27T02:05:50.952Z,1006.86
2017-09-27T02:07:01.283Z,1006.8
2017-09-27T02:08:11.657Z,1006.82
2017-09-27T02:09:21.997Z,1006.81
2017-09-27T02:10:32.330Z,1006.79
2017-09-27T02:11:42.682Z,1006.79
2017-09-27T02:12:53.080Z,1006.75
2017-09-27T02:14:03.100Z,1006.77
2017-09-27T02:15:13.448Z,1006.8
2017-09-27T02:16:23.795Z,1006.72
2017-09-27T02:17:34.147Z,1006.76
2017-09-27T02:18:44.155Z,1006.73
2017-09-27T02:19:54.184Z,1006.74
2017-09-27T02:21:04.514Z,1006.73
2017-09-27T02:22:15.032Z,1006.75
2017-09-27T02:23:25.372Z,1006.73
2017-09-27T02:24:35.386Z,1006.71
2017-09-27T02:25:45.410Z,1006.68
2017-09-27T02:26:55.755Z,1006.7
2017-09-27T02:28:06.091Z,1006.7
2017-09-27T02:29:16.111Z,1006.71
2017-09-27T02:30:25.810Z,1006.71
2017-09-27T02:31:35.839Z,1006.7
2017-09-27T02:32:45.550Z,1006.7
2017-09-27T02:33:55.893Z,1006.68
2017-09-27T02:35:06.241Z,1006.69
2017-09-27T02:36:16.314Z,1006.71
2017-09-27T02:37:26.650Z,1006.68
2017-09-27T02:38:37.014Z,1006.67
2017-09-27T02:39:47.365Z,1006.68
2017-09-27T02:40:57.706Z,1006.7
2017-09-27T02:42:08.171Z,1006.72
2017-09-27T02:43:17.888Z,1006.76
2017-09-27T02:44:28.233Z,1006.74
2017-09-27T02:45:38.254Z,1006.74
2017-09-27T02:46:48.621Z,1006.69
2017-09-27T02:47:58.652Z,1006.73
2017-09-27T02:49:08.980Z,1006.68
2017-09-27T02:50:19.319Z,1006.71
2017-09-27T02:51:29.355Z,1006.76
2017-09-27T02:52:39.697Z,1006.81
2017-09-27T02:53:50.051Z,1006.8
2017-09-27T02:55:00.077Z,1006.8
2017-09-27T02:56:09.781Z,1006.79
2017-09-27T02:57:20.117Z,1006.77
2017-09-27T02:58:30.126Z,1006.76
2017-09-27T02:59:40.517Z,1006.76
2017-09-27T03:00:50.861Z,1006.71
2017-09-27T03:02:01.194Z,1006.71
2017-09-27T03:33:21.948Z,1006.82
2017-09-27T03:34:32.273Z,1006.83
2017-09-27T03:35:42.286Z,1006.85
2017-09-27T03:36:52.608Z,1006.82
2017-09-27T03:38:02.960Z,1006.85
2017-09-27T03:39:12.975Z,1006.86
2017-09-27T03:40:23.009Z,1006.87
2017-09-27T03:41:33.345Z,1006.82
2017-09-27T03:42:43.682Z,1006.88
2017-09-27T03:43:53.726Z,1006.89
2017-09-27T03:45:04.069Z,1006.88
2017-09-27T03:46:14.093Z,1006.86
2017-09-27T03:47:24.421Z,1006.86
2017-09-27T03:48:34.753Z,1006.85
2017-09-27T03:49:44.814Z,1006.86
2017-09-27T03:50:55.204Z,1006.86
2017-09-27T03:52:05.542Z,1006.88
2017-09-27T03:53:15.250Z,1006.87
2017-09-27T03:54:25.606Z,1006.93
2017-09-27T03:55:37.043Z,1006.89
2017-09-27T03:56:47.437Z,1006.92
2017-09-27T03:57:57.471Z,1006.9
2017-09-27T03:59:07.496Z,1006.91
2017-09-27T04:00:17.828Z,1006.91
2017-09-27T04:01:28.163Z,1006.87
2017-09-27T04:02:38.184Z,1006.88
2017-09-27T04:03:48.520Z,1006.92
2017-09-27T04:04:58.868Z,1006.9
2017-09-27T04:06:09.217Z,1006.91
2017-09-27T04:07:19.251Z,1006.9
2017-09-27T04:08:29.649Z,1006.93
2017-09-27T04:09:40.007Z,1006.94
2017-09-27T04:10:50.337Z,1006.95
2017-09-27T04:12:00.372Z,1006.95
2017-09-27T04:13:10.407Z,1006.95
2017-09-27T04:14:20.433Z,1006.94
2017-09-27T04:15:30.457Z,1006.95
2017-09-27T04:16:40.808Z,1006.96
2017-09-27T04:17:51.154Z,1006.99
2017-09-27T04:19:01.503Z,1006.97
2017-09-27T04:20:11.831Z,1006.98
2017-09-27T04:21:22.181Z,1006.97
2017-09-27T04:22:32.517Z,1007.01
2017-09-27T04:23:42.544Z,1006.97
2017-09-27T04:24:52.578Z,1007
2017-09-27T04:26:02.962Z,1007.03
2017-09-27T04:27:13.300Z,1007
2017-09-27T04:28:23.654Z,1007.04
2017-09-27T04:29:33.718Z,1007.05
2017-09-27T04:30:44.054Z,1007
2017-09-27T04:31:54.400Z,1007.08
2017-09-27T04:33:04.733Z,1007.06
2017-09-27T04:34:15.086Z,1007.07
2017-09-27T04:35:24.797Z,1007.08
2017-09-27T04:36:34.838Z,1007.1
2017-09-27T04:37:45.220Z,1007.09
2017-09-27T04:38:55.247Z,1007.07
2017-09-27T04:40:05.604Z,1007.07
2017-09-27T04:41:15.626Z,1007.12
2017-09-27T04:42:25.968Z,1007.11
2017-09-27T04:43:36.306Z,1007.12
2017-09-27T04:44:46.645Z,1007.11
2017-09-27T04:45:56.973Z,1007.12
2017-09-27T04:47:06.996Z,1007.13
2017-09-27T04:48:17.347Z,1007.11
2017-09-27T04:49:27.739Z,1007.11
2017-09-27T04:50:37.760Z,1007.14
2017-09-27T04:51:47.795Z,1007.12
2017-09-27T04:52:57.812Z,1007.11
2017-09-27T04:54:08.143Z,1007.14
2017-09-27T04:55:18.532Z,1007.14
2017-09-27T04:56:28.891Z,1007.15
2017-09-27T04:57:38.925Z,1007.14
2017-09-27T04:58:48.960Z,1007.14
2017-09-27T04:59:58.975Z,1007.19
2017-09-27T05:01:09.366Z,1007.21
2017-09-27T05:02:19.377Z,1007.19
2017-09-27T05:03:29.724Z,1007.21
2017-09-27T05:04:39.737Z,1007.23
2017-09-27T05:05:50.083Z,1007.23
2017-09-27T05:07:00.428Z,1007.28
2017-09-27T05:08:10.772Z,1007.32
2017-09-27T05:09:21.112Z,1007.35
2017-09-27T05:10:31.449Z,1007.37
2017-09-27T05:11:41.803Z,1007.37
2017-09-27T05:12:51.824Z,1007.39
2017-09-27T05:14:02.151Z,1007.46
2017-09-27T05:15:12.193Z,1007.42
2017-09-27T05:16:22.223Z,1007.45
2017-09-27T05:17:32.590Z,1007.44
2017-09-27T05:18:42.623Z,1007.44
2017-09-27T05:19:52.655Z,1007.48
2017-09-27T05:21:03.006Z,1007.48
2017-09-27T05:22:13.033Z,1007.51
2017-09-27T05:23:23.382Z,1007.54
2017-09-27T05:24:33.811Z,1007.53
2017-09-27T05:25:43.833Z,1007.54
2017-09-27T05:26:54.190Z,1007.57
2017-09-27T05:28:04.258Z,1007.55
2017-09-27T05:29:14.600Z,1007.56
2017-09-27T05:30:24.638Z,1007.55
2017-09-27T05:31:34.662Z,1007.56
2017-09-27T05:32:44.996Z,1007.54
2017-09-27T05:33:55.345Z,1007.55
2017-09-27T05:35:05.695Z,1007.54
2017-09-27T05:36:16.024Z,1007.49
2017-09-27T05:37:26.380Z,1007.48
2017-09-27T05:38:36.407Z,1007.52
2017-09-27T05:39:46.439Z,1007.52
2017-09-27T05:40:56.780Z,1007.52
2017-09-27T05:42:07.165Z,1007.49
2017-09-27T05:43:17.204Z,1007.52
2017-09-27T05:44:27.560Z,1007.51
2017-09-27T05:45:37.583Z,1007.52
2017-09-27T05:46:47.604Z,1007.55
2017-09-27T05:47:57.994Z,1007.52
2017-09-27T05:49:08.332Z,1007.51
2017-09-27T05:50:18.667Z,1007.5
2017-09-27T05:51:29.005Z,1007.5
2017-09-27T05:52:39.057Z,1007.51
2017-09-27T05:53:49.391Z,1007.55
2017-09-27T05:54:59.735Z,1007.58
2017-09-27T05:56:10.088Z,1007.59
2017-09-27T05:57:20.477Z,1007.6
2017-09-27T05:58:30.823Z,1007.61
2017-09-27T05:59:41.216Z,1007.61
2017-09-27T06:00:51.570Z,1007.59
2017-09-27T06:02:01.932Z,1007.66
2017-09-27T06:03:11.966Z,1007.62
2017-09-27T06:04:22.312Z,1007.63
2017-09-27T06:05:32.792Z,1007.63
2017-09-27T06:06:43.141Z,1007.65
2017-09-27T06:07:53.168Z,1007.63
2017-09-27T06:09:03.505Z,1007.67
2017-09-27T06:10:13.859Z,1007.71
2017-09-27T06:11:24.267Z,1007.71
2017-09-27T06:12:34.303Z,1007.67
2017-09-27T06:13:44.001Z,1007.72
2017-09-27T06:14:54.386Z,1007.73
2017-09-27T06:16:04.414Z,1007.78
2017-09-27T06:17:14.751Z,1007.75
2017-09-27T06:18:25.106Z,1007.76
2017-09-27T06:19:35.144Z,1007.76
2017-09-27T06:20:45.486Z,1007.74
2017-09-27T06:21:55.529Z,1007.74
2017-09-27T06:23:05.595Z,1007.74
2017-09-27T06:24:15.621Z,1007.73
2017-09-27T06:25:25.968Z,1007.75
2017-09-27T06:26:36.305Z,1007.76
2017-09-27T06:27:46.646Z,1007.78
2017-09-27T06:28:56.999Z,1007.77
2017-09-27T06:30:07.086Z,1007.78
2017-09-27T06:31:17.427Z,1007.84
2017-09-27T06:32:27.778Z,1007.86
2017-09-27T06:33:37.809Z,1007.87
2017-09-27T06:34:48.154Z,1007.87
2017-09-27T06:35:58.490Z,1007.86
2017-09-27T06:37:08.825Z,1007.9
2017-09-27T06:38:18.895Z,1007.89
2017-09-27T06:39:29.314Z,1007.92
2017-09-27T06:40:39.538Z,1007.92
2017-09-27T06:41:49.862Z,1007.94
2017-09-27T06:43:00.209Z,1007.98
2017-09-27T06:44:10.556Z,1007.97
2017-09-27T06:45:20.272Z,1007.95
2017-09-27T06:46:30.620Z,1007.99
2017-09-27T06:47:40.973Z,1007.97
2017-09-27T06:48:51.322Z,1007.99
2017-09-27T06:50:01.350Z,1008.01
2017-09-27T06:51:11.711Z,1008.01
2017-09-27T06:52:22.108Z,1008.03
2017-09-27T06:53:32.141Z,1008
2017-09-27T06:54:42.502Z,1008.03
2017-09-27T06:55:52.834Z,1008.03
2017-09-27T06:57:02.855Z,1007.98
2017-09-27T06:58:13.202Z,1008.05
2017-09-27T06:59:23.550Z,1008.04
2017-09-27T07:00:33.896Z,1008.04
2017-09-27T07:01:43.920Z,1008.05
2017-09-27T07:02:54.265Z,1008.09
2017-09-27T07:04:04.666Z,1008.12
2017-09-27T07:05:15.021Z,1008.1
2017-09-27T07:06:25.350Z,1008.1
2017-09-27T07:07:35.372Z,1008.11
2017-09-27T07:08:45.720Z,1008.1
2017-09-27T07:09:56.132Z,1008.13
2017-09-27T07:11:06.161Z,1008.11
2017-09-27T07:12:16.506Z,1008.1
2017-09-27T07:13:26.859Z,1008.1
2017-09-27T07:14:37.212Z,1008.13
2017-09-27T07:15:47.309Z,1008.14
2017-09-27T07:16:57.335Z,1008.16
2017-09-27T07:18:07.692Z,1008.2
2017-09-27T07:19:18.040Z,1008.2
2017-09-27T07:20:28.387Z,1008.22
2017-09-27T07:21:38.137Z,1008.21
2017-09-27T07:22:48.155Z,1008.23
2017-09-27T07:23:57.857Z,1008.23
2017-09-27T07:25:07.890Z,1008.23
2017-09-27T07:26:17.925Z,1008.22
2017-09-27T07:27:28.011Z,1008.24
2017-09-27T07:28:38.058Z,1008.25
2017-09-27T07:29:48.100Z,1008.26
2017-09-27T07:30:58.446Z,1008.27
2017-09-27T07:32:08.810Z,1008.29
2017-09-27T07:33:19.146Z,1008.32
2017-09-27T07:34:29.507Z,1008.32
2017-09-27T07:35:39.856Z,1008.34
2017-09-27T07:36:49.913Z,1008.32
2017-09-27T07:37:59.952Z,1008.36
2017-09-27T07:39:09.996Z,1008.36
2017-09-27T07:40:20.036Z,1008.32
2017-09-27T07:41:30.069Z,1008.32
2017-09-27T07:42:40.106Z,1008.35
2017-09-27T07:43:51.066Z,1008.36
2017-09-27T07:45:01.155Z,1008.39
2017-09-27T07:46:11.556Z,1008.42
2017-09-27T07:47:21.257Z,1008.41
2017-09-27T07:48:31.317Z,1008.41
2017-09-27T07:49:41.347Z,1008.42
2017-09-27T07:50:51.761Z,1008.46
2017-09-27T07:52:02.096Z,1008.46
2017-09-27T07:53:12.472Z,1008.45
2017-09-27T07:54:22.830Z,1008.45
2017-09-27T07:55:33.173Z,1008.43
2017-09-27T07:56:43.604Z,1008.48
2017-09-27T07:57:53.683Z,1008.48
2017-09-27T07:59:03.729Z,1008.48
2017-09-27T08:00:13.764Z,1008.45
2017-09-27T08:01:24.159Z,1008.48
2017-09-27T08:02:34.248Z,1008.47
2017-09-27T08:03:44.598Z,1008.46
2017-09-27T08:04:54.621Z,1008.51
2017-09-27T08:06:04.962Z,1008.51
2017-09-27T08:07:14.985Z,1008.55
2017-09-27T08:08:25.067Z,1008.56
2017-09-27T08:09:35.094Z,1008.55
2017-09-27T08:10:45.442Z,1008.57
2017-09-27T08:11:55.789Z,1008.59
2017-09-27T08:13:06.146Z,1008.59
2017-09-27T08:14:16.180Z,1008.52
2017-09-27T08:15:26.528Z,1008.51
2017-09-27T08:16:36.885Z,1008.51
2017-09-27T08:17:47.241Z,1008.51
2017-09-27T08:18:57.588Z,1008.55
2017-09-27T08:20:07.683Z,1008.48
2017-09-27T08:21:18.083Z,1008.5
2017-09-27T08:22:28.117Z,1008.48
2017-09-27T08:23:37.827Z,1008.5
2017-09-27T08:24:48.175Z,1008.52
2017-09-27T08:25:58.568Z,1008.51
2017-09-27T08:27:08.957Z,1008.46
2017-09-27T08:28:18.985Z,1008.45
2017-09-27T08:29:29.336Z,1008.48
2017-09-27T08:30:39.709Z,1008.46
2017-09-27T08:31:50.062Z,1008.46
2017-09-27T08:33:00.426Z,1008.51
2017-09-27T08:34:10.828Z,1008.48
2017-09-27T08:35:21.186Z,1008.47
2017-09-27T08:36:31.543Z,1008.49
2017-09-27T08:37:41.947Z,1008.45
2017-09-27T08:38:52.309Z,1008.44
2017-09-27T08:40:02.660Z,1008.45
2017-09-27T08:41:13.029Z,1008.43
2017-09-27T08:42:22.749Z,1008.44
2017-09-27T08:43:33.148Z,1008.46
2017-09-27T08:44:43.183Z,1008.42
2017-09-27T08:45:53.226Z,1008.39
2017-09-27T08:47:03.573Z,1008.41
2017-09-27T08:48:13.925Z,1008.4
2017-09-27T08:49:24.311Z,1008.42
2017-09-27T08:50:35.479Z,1008.37
2017-09-27T08:51:50.274Z,1008.39
2017-09-27T08:53:04.807Z,1008.4
2017-09-27T08:54:19.355Z,1008.34
2017-09-27T08:55:33.194Z,1008.36
2017-09-27T08:56:47.925Z,1008.38
2017-09-27T08:58:01.517Z,1008.36
2017-09-27T08:59:14.601Z,1008.39
2017-09-27T09:00:29.551Z,1008.36
2017-09-27T09:01:44.069Z,1008.3
2017-09-27T09:02:58.414Z,1008.33
2017-09-27T09:04:11.917Z,1008.35
2017-09-27T09:05:21.982Z,1008.38
2017-09-27T09:06:32.400Z,1008.33
2017-09-27T09:07:42.790Z,1008.38
2017-09-27T09:08:53.166Z,1008.37
2017-09-27T09:10:03.786Z,1008.37
2017-09-27T09:11:14.228Z,1008.37
2017-09-27T09:12:24.593Z,1008.36
2017-09-27T09:13:34.951Z,1008.37
2017-09-27T09:14:44.695Z,1008.3
2017-09-27T09:15:55.285Z,1008.34
2017-09-27T09:17:05.743Z,1008.29
2017-09-27T09:18:16.147Z,1008.3
2017-09-27T09:19:26.569Z,1008.3
2017-09-27T09:20:36.641Z,1008.28
2017-09-27T09:21:46.658Z,1008.3
2017-09-27T09:22:56.763Z,1008.27
2017-09-27T09:24:06.821Z,1008.28
2017-09-27T09:25:17.316Z,1008.28
2017-09-27T09:26:27.721Z,1008.28
2017-09-27T09:27:38.121Z,1008.28
2017-09-27T09:28:48.560Z,1008.3
2017-09-27T09:29:58.937Z,1008.32
2017-09-27T09:31:09.323Z,1008.26
2017-09-27T09:32:19.979Z,1008.26
2017-09-27T09:33:30.323Z,1008.24
2017-09-27T09:34:40.683Z,1008.24
2017-09-27T09:35:50.744Z,1008.26
2017-09-27T09:37:01.091Z,1008.23
2017-09-27T09:38:11.120Z,1008.25
2017-09-27T09:39:21.473Z,1008.23
2017-09-27T09:40:31.912Z,1008.24
2017-09-27T09:41:42.257Z,1008.24
2017-09-27T09:42:52.011Z,1008.19
2017-09-27T09:44:02.045Z,1008.2
2017-09-27T09:45:12.386Z,1008.24
2017-09-27T09:46:22.790Z,1008.22
2017-09-27T09:47:33.129Z,1008.16
2017-09-27T09:48:43.154Z,1008.17
2017-09-27T09:49:53.523Z,1008.15
2017-09-27T09:51:03.925Z,1008.18
2017-09-27T09:52:14.329Z,1008.22
2017-09-27T09:53:24.680Z,1008.19
2017-09-27T09:54:35.033Z,1008.19
2017-09-27T09:55:45.381Z,1008.22
2017-09-27T09:56:55.736Z,1008.21
2017-09-27T09:58:06.144Z,1008.21
2017-09-27T09:59:16.514Z,1008.18
2017-09-27T10:00:26.863Z,1008.22
2017-09-27T10:01:37.237Z,1008.23
2017-09-27T10:02:47.606Z,1008.25
2017-09-27T10:03:58.002Z,1008.25
2017-09-27T10:05:08.370Z,1008.23
2017-09-27T10:06:18.731Z,1008.2
2017-09-27T10:07:29.089Z,1008.22
2017-09-27T10:08:39.132Z,1008.2
2017-09-27T10:09:49.487Z,1008.18
2017-09-27T10:10:59.865Z,1008.21
2017-09-27T10:12:09.890Z,1008.22
2017-09-27T10:13:19.958Z,1008.14
2017-09-27T10:14:30.299Z,1008.15
2017-09-27T10:15:40.393Z,1008.16
2017-09-27T10:16:50.431Z,1008.17
2017-09-27T10:18:00.472Z,1008.17
2017-09-27T10:19:10.872Z,1008.14
2017-09-27T10:20:21.239Z,1008.15
2017-09-27T10:21:31.331Z,1008.1
2017-09-27T10:22:41.671Z,1008.15
2017-09-27T10:23:51.723Z,1008.13
2017-09-27T10:25:02.121Z,1008.14
2017-09-27T10:26:12.504Z,1008.14
2017-09-27T10:27:23.005Z,1008.13
2017-09-27T10:28:33.356Z,1008.09
2017-09-27T10:29:43.706Z,1008.14
2017-09-27T10:30:54.063Z,1008.12
2017-09-27T10:32:04.442Z,1008.15
2017-09-27T10:33:14.839Z,1008.15
2017-09-27T10:34:25.228Z,1008.13
2017-09-27T10:35:35.272Z,1008.19
2017-09-27T10:36:45.617Z,1008.14
2017-09-27T10:37:55.991Z,1008.18
2017-09-27T10:39:06.090Z,1008.18
2017-09-27T10:40:16.148Z,1008.17
2017-09-27T10:41:26.512Z,1008.18
2017-09-27T10:42:36.550Z,1008.18
2017-09-27T10:43:46.278Z,1008.22
2017-09-27T10:44:56.316Z,1008.16
2017-09-27T10:46:06.686Z,1008.2
2017-09-27T10:47:16.714Z,1008.16
2017-09-27T10:48:26.732Z,1008.25
2017-09-27T10:49:37.086Z,1008.19
2017-09-27T10:50:47.479Z,1008.22
2017-09-27T10:51:57.511Z,1008.2
2017-09-27T10:53:08.508Z,1008.21
2017-09-27T10:54:18.858Z,1008.25
2017-09-27T10:55:29.210Z,1008.18
2017-09-27T10:56:39.247Z,1008.22
2017-09-27T10:57:49.592Z,1008.21
2017-09-27T10:58:59.949Z,1008.17
2017-09-27T11:00:10.010Z,1008.18
2017-09-27T11:01:20.385Z,1008.2
2017-09-27T11:02:30.931Z,1008.21
2017-09-27T11:03:40.990Z,1008.18
2017-09-27T11:04:51.390Z,1008.15
2017-09-27T11:06:01.753Z,1008.13
2017-09-27T11:07:12.126Z,1008.12
2017-09-27T11:08:22.576Z,1008.12
2017-09-27T11:09:32.641Z,1008.13
2017-09-27T11:10:43.003Z,1008.13
2017-09-27T11:11:53.105Z,1008.09
2017-09-27T11:13:03.472Z,1008.1
2017-09-27T11:14:13.863Z,1008.05
2017-09-27T11:15:24.232Z,1008.03
2017-09-27T11:16:34.592Z,1008.09
2017-09-27T11:17:44.949Z,1008.07
2017-09-27T11:18:54.977Z,1008.05
2017-09-27T11:20:05.074Z,1008.03
2017-09-27T11:21:15.449Z,1008.03
2017-09-27T11:22:25.796Z,1008.06
2017-09-27T11:23:35.830Z,1008.03
2017-09-27T11:24:46.197Z,1008.13
2017-09-27T11:25:56.280Z,1008.08
2017-09-27T11:27:06.323Z,1008.07
2017-09-27T11:28:16.356Z,1008.05
2017-09-27T11:29:26.404Z,1008.04
2017-09-27T11:30:36.445Z,1007.97
2017-09-27T11:31:46.219Z,1008.03
2017-09-27T11:32:56.260Z,1007.99
2017-09-27T11:34:06.627Z,1008.02
2017-09-27T11:35:16.657Z,1008
2017-09-27T11:36:27.013Z,1008.03
2017-09-27T11:37:37.478Z,1008.05
2017-09-27T11:38:47.836Z,1008.08
2017-09-27T11:39:58.232Z,1008.06
2017-09-27T11:41:08.613Z,1008.07
2017-09-27T11:42:18.981Z,1008.05
2017-09-27T11:43:29.379Z,1008.04
2017-09-27T11:44:39.730Z,1007.99
2017-09-27T11:45:49.440Z,1007.99
2017-09-27T11:47:00.046Z,1007.93
2017-09-27T11:48:10.088Z,1007.95
2017-09-27T11:49:20.122Z,1007.94
2017-09-27T11:50:30.475Z,1007.93
2017-09-27T11:51:40.515Z,1007.93
2017-09-27T11:52:50.867Z,1007.94
2017-09-27T11:54:00.903Z,1008.02
2017-09-27T11:55:11.311Z,1007.99
2017-09-27T11:56:21.686Z,1007.98
2017-09-27T11:57:32.030Z,1007.99
2017-09-27T11:58:42.376Z,1007.96
2017-09-27T11:59:52.407Z,1008.01
2017-09-27T12:01:02.819Z,1008.02
2017-09-27T12:02:13.173Z,1008.01
2017-09-27T12:03:23.515Z,1008.01
2017-09-27T12:04:33.865Z,1008
2017-09-27T12:05:42.966Z,1007.98
2017-09-27T12:06:53.003Z,1007.97
2017-09-27T12:08:03.368Z,1007.96
2017-09-27T12:09:13.743Z,1007.98
2017-09-27T12:10:24.104Z,1007.95
2017-09-27T12:11:34.450Z,1007.96
2017-09-27T12:12:44.817Z,1007.93
2017-09-27T12:13:54.862Z,1007.91
2017-09-27T12:15:05.222Z,1007.87
2017-09-27T12:16:14.933Z,1007.88
2017-09-27T12:17:24.634Z,1007.85
2017-09-27T12:18:34.399Z,1007.88
2017-09-27T12:19:44.753Z,1007.9
2017-09-27T12:20:55.106Z,1007.87
2017-09-27T12:22:05.483Z,1007.83
2017-09-27T12:23:15.845Z,1007.84
2017-09-27T12:24:26.216Z,1007.88
2017-09-27T12:25:36.256Z,1007.84
2017-09-27T12:26:46.292Z,1007.84
2017-09-27T12:27:56.657Z,1007.86
2017-09-27T12:29:06.364Z,1007.87
2017-09-27T12:30:16.466Z,1007.85
2017-09-27T12:31:26.824Z,1007.87
2017-09-27T12:32:36.213Z,1007.84
2017-09-27T12:33:46.270Z,1007.82
2017-09-27T12:34:56.312Z,1007.85
2017-09-27T12:36:06.353Z,1007.86
2017-09-27T12:37:16.065Z,1007.86
2017-09-27T12:38:26.125Z,1007.84
2017-09-27T12:39:36.460Z,1007.86
2017-09-27T12:40:46.833Z,1007.87
2017-09-27T12:41:56.912Z,1007.82
2017-09-27T12:43:06.939Z,1007.79
2017-09-27T12:44:17.292Z,1007.79
2017-09-27T12:45:27.646Z,1007.81
2017-09-27T12:46:37.993Z,1007.8
2017-09-27T12:47:48.418Z,1007.8
2017-09-27T12:48:58.130Z,1007.81
2017-09-27T12:50:08.184Z,1007.84
2017-09-27T12:51:18.533Z,1007.84
2017-09-27T12:52:28.894Z,1007.78
2017-09-27T12:53:38.931Z,1007.83
2017-09-27T12:54:49.283Z,1007.79
2017-09-27T12:55:59.339Z,1007.8
2017-09-27T12:57:09.684Z,1007.79
2017-09-27T12:58:20.064Z,1007.79
2017-09-27T12:59:30.467Z,1007.79
2017-09-27T13:00:43.031Z,1007.81
2017-09-27T13:01:53.412Z,1007.84
2017-09-27T13:03:03.458Z,1007.83
2017-09-27T13:04:13.506Z,1007.81
2017-09-27T13:05:23.862Z,1007.84
2017-09-27T13:06:33.940Z,1007.86
2017-09-27T13:07:44.284Z,1007.85
2017-09-27T13:08:54.313Z,1007.83
2017-09-27T13:10:04.674Z,1007.85
2017-09-27T13:11:15.076Z,1007.85
2017-09-27T13:12:25.103Z,1007.84
2017-09-27T13:13:35.468Z,1007.84
2017-09-27T13:14:45.831Z,1007.83
2017-09-27T13:15:55.910Z,1007.82
2017-09-27T13:17:06.002Z,1007.82
2017-09-27T13:18:16.357Z,1007.82
2017-09-27T13:19:26.706Z,1007.83
2017-09-27T13:20:36.750Z,1007.8
2017-09-27T13:21:46.787Z,1007.84
2017-09-27T13:22:56.844Z,1007.84
2017-09-27T13:24:07.202Z,1007.88
2017-09-27T13:25:17.554Z,1007.88
2017-09-27T13:26:27.604Z,1007.87
2017-09-27T13:27:37.976Z,1007.88
2017-09-27T13:28:48.019Z,1007.87
2017-09-27T13:29:58.452Z,1007.88
2017-09-27T13:31:08.828Z,1007.84
2017-09-27T13:32:18.873Z,1007.88
2017-09-27T13:33:29.210Z,1007.87
2017-09-27T13:34:39.578Z,1007.83
2017-09-27T13:35:49.923Z,1007.81
2017-09-27T13:37:00.265Z,1007.85
2017-09-27T13:38:10.626Z,1007.82
2017-09-27T13:39:20.973Z,1007.84
2017-09-27T13:40:31.323Z,1007.82
2017-09-27T13:41:41.730Z,1007.83
2017-09-27T13:42:51.454Z,1007.82
2017-09-27T13:44:01.820Z,1007.8
2017-09-27T13:45:12.422Z,1007.84
2017-09-27T13:46:22.770Z,1007.8
2017-09-27T13:47:33.138Z,1007.83
2017-09-27T13:48:42.865Z,1007.79
2017-09-27T13:49:53.230Z,1007.85
2017-09-27T13:51:03.570Z,1007.83
2017-09-27T13:52:13.598Z,1007.8
2017-09-27T13:53:23.379Z,1007.81
2017-09-27T13:54:33.745Z,1007.79
2017-09-27T13:55:44.107Z,1007.79
2017-09-27T13:56:54.148Z,1007.81
2017-09-27T13:58:04.522Z,1007.8
2017-09-27T13:59:14.977Z,1007.77
2017-09-27T14:00:25.330Z,1007.77
2017-09-27T14:01:35.676Z,1007.77
2017-09-27T14:02:45.736Z,1007.76
2017-09-27T14:03:55.777Z,1007.75
2017-09-27T14:05:06.186Z,1007.72
2017-09-27T14:06:16.249Z,1007.75
2017-09-27T14:07:26.622Z,1007.76
2017-09-27T14:08:36.997Z,1007.74
2017-09-27T14:09:47.378Z,1007.72
2017-09-27T14:10:57.797Z,1007.71
2017-09-27T14:12:08.167Z,1007.7
2017-09-27T14:13:18.524Z,1007.71
2017-09-27T14:14:28.573Z,1007.72
2017-09-27T14:15:38.934Z,1007.71
2017-09-27T14:16:48.984Z,1007.66
2017-09-27T14:17:59.328Z,1007.71
2017-09-27T14:19:09.680Z,1007.68
2017-09-27T14:20:20.054Z,1007.68
2017-09-27T14:21:30.095Z,1007.69
2017-09-27T14:22:40.517Z,1007.74
2017-09-27T14:23:50.568Z,1007.65
2017-09-27T14:25:00.971Z,1007.67
2017-09-27T14:26:11.011Z,1007.66
2017-09-27T14:27:21.393Z,1007.66
2017-09-27T14:28:31.806Z,1007.66
2017-09-27T14:29:41.849Z,1007.62
2017-09-27T14:30:51.912Z,1007.63
2017-09-27T14:32:02.262Z,1007.68
2017-09-27T14:33:12.318Z,1007.67
2017-09-27T14:34:22.674Z,1007.61
2017-09-27T14:35:33.028Z,1007.64
2017-09-27T14:36:43.065Z,1007.64
2017-09-27T14:37:53.410Z,1007.67
2017-09-27T14:39:03.783Z,1007.66
2017-09-27T14:40:14.188Z,1007.63
2017-09-27T14:41:24.227Z,1007.61
2017-09-27T14:42:33.614Z,1007.6
2017-09-27T14:43:43.979Z,1007.6